• Join FlightAware (Why Join?)
  • Login
  • US Flag 
Rudolph Flight #1: Arrived! 
09:49PM EST


 

Airport Tracker/Info


-or-


 

Live Flight TrackerFlight Track Log ✈ N2368S ✈ 07-Jul-2014 ✈ KUZA - KARW

Flight Track Log - Related Links

Times and Time Zones

All times are in EDT time to prevent confusion due to time zone crossing. See the N2368S flight status page for this flight to view local times or setup timezone preferences in your user account.

Time Position Orientation Groundspeed Altitude Reporting Facility
EDT Latitude Longitude Course Direction KTS MPH feet Rate Location/Type
10:46AM 34.8869 -81.0483 168° South 95 109 2,700  Level Atlanta Center
10:47AM 34.8597 -81.0417 169° South 89 102 3,400 600 Climbing Atlanta Center
10:48AM 34.8344 -81.0400 177° South 85 98 4,000 600 Climbing Atlanta Center
10:49AM 34.8072 -81.0361 173° South 91 105 4,700 480 Climbing Atlanta Center
10:50AM 34.7781 -81.0294 169° South 94 108 5,200 420 Climbing Atlanta Center
10:51AM 34.8225 -81.0265 168° South  Level FlightAware Approximate
10:51AM 34.7633 -81.0275 174° South 94 108 5,500  Level Atlanta Center
10:53AM 34.7128 -81.0105 172° South  Level FlightAware Approximate
11:00AM 34.4881 -80.9720 171° South  Level FlightAware Approximate
11:01AM 34.4561 -80.9661 171° South  Level FlightAware Approximate
11:02AM 34.4240 -80.9603 171° South  Level FlightAware Approximate
11:03AM 34.3919 -80.9544 171° South  Level FlightAware Approximate
11:04AM 34.3599 -80.9485 171° South  Level FlightAware Approximate
11:05AM 34.3278 -80.9427 171° South  Level FlightAware Approximate
11:06AM 34.2958 -80.9368 171° South  Level FlightAware Approximate
11:07AM 34.2637 -80.9310 171° South  Level FlightAware Approximate
11:08AM 34.2316 -80.9252 171° South  Level FlightAware Approximate
11:09AM 34.1996 -80.9193 171° South  Level FlightAware Approximate
11:10AM 34.1675 -80.9135 171° South  Level FlightAware Approximate
11:11AM 34.1355 -80.9077 171° South  Level FlightAware Approximate
11:12AM 34.1034 -80.9018 171° South  Level FlightAware Approximate
11:13AM 34.0713 -80.8960 171° South  Level FlightAware Approximate
11:14AM 34.0393 -80.8902 171° South  Level FlightAware Approximate
11:15AM 34.0072 -80.8844 171° South  Level FlightAware Approximate
11:16AM 33.9752 -80.8786 171° South  Level FlightAware Approximate
11:17AM 33.9431 -80.8728 171° South  Level FlightAware Approximate
11:18AM 33.9110 -80.8670 171° South  Level FlightAware Approximate
11:19AM 33.8790 -80.8612 171° South  Level FlightAware Approximate
11:20AM 33.8469 -80.8555 171° South  Level FlightAware Approximate
11:21AM 33.8148 -80.8500 180° South  Level FlightAware Approximate
11:22AM 33.7824 -80.8500 180° South  Level FlightAware Approximate
11:23AM 33.7500 -80.8500 180° South  Level FlightAware Approximate
11:24AM 33.7178 -80.8471 171° South  Level FlightAware Approximate
11:25AM 33.6857 -80.8410 171° South  Level FlightAware Approximate
11:26AM 33.6537 -80.8350 171° South  Level FlightAware Approximate
11:27AM 33.6217 -80.8290 171° South  Level FlightAware Approximate
11:28AM 33.5896 -80.8230 171° South  Level FlightAware Approximate
11:29AM 33.5576 -80.8170 171° South  Level FlightAware Approximate
11:30AM 33.5256 -80.8110 171° South  Level FlightAware Approximate
11:31AM 33.4935 -80.8050 171° South  Level FlightAware Approximate
11:32AM 33.4615 -80.7990 171° South  Level FlightAware Approximate
11:33AM 33.4295 -80.7930 171° South  Level FlightAware Approximate
11:34AM 33.3974 -80.7870 171° South  Level FlightAware Approximate
11:35AM 33.3654 -80.7810 171° South  Level FlightAware Approximate
11:36AM 33.3334 -80.7750 171° South  Level FlightAware Approximate
11:37AM 33.3014 -80.7690 171° South  Level FlightAware Approximate
11:38AM 33.2693 -80.7630 171° South  Level FlightAware Approximate
11:39AM 33.2373 -80.7570 171° South  Level FlightAware Approximate
11:40AM 33.2053 -80.7510 171° South  Level FlightAware Approximate
11:41AM 33.1731 -80.7458 172° South  Level FlightAware Approximate
11:42AM 33.1410 -80.7407 172° South  Level FlightAware Approximate
11:43AM 33.1089 -80.7356 172° South  Level FlightAware Approximate
11:44AM 33.0767 -80.7305 172° South  Level FlightAware Approximate
11:45AM 33.0446 -80.7254 172° South  Level FlightAware Approximate
11:46AM 33.0125 -80.7203 172° South  Level FlightAware Approximate
11:47AM 32.9803 -80.7153 172° South  Level FlightAware Approximate
11:48AM 32.9482 -80.7102 172° South  Level FlightAware Approximate
11:49AM 32.9160 -80.7051 172° South  Level FlightAware Approximate
11:50AM 32.8839 -80.7001 172° South  Level FlightAware Approximate
11:51AM 32.8518 -80.6947 172° South  Level FlightAware Approximate
11:52AM 32.8197 -80.6894 172° South  Level FlightAware Approximate
11:53AM 32.7876 -80.6840 172° South  Level FlightAware Approximate
11:54AM 32.7555 -80.6787 172° South  Level FlightAware Approximate
11:55AM 32.7234 -80.6733 172° South  Level FlightAware Approximate
11:56AM 32.6912 -80.6680 172° South  Level FlightAware Approximate
11:57AM 32.6590 -80.6642 175° South  Level FlightAware Approximate
11:58AM 32.6267 -80.6610 175° South  Level FlightAware Approximate
11:59AM 32.5944 -80.6578 175° South  Level FlightAware Approximate
12:00PM 32.5621 -80.6545 175° South  Level FlightAware Approximate
12:01PM 32.5298 -80.6513 175° South  Level FlightAware Approximate
12:02PM 32.4989 -80.6411 157° South  Level FlightAware Approximate
12:03PM 32.4678 -80.6333 180° South  Level FlightAware Approximate
12:04PM 32.4354 -80.6333 180° South  Level FlightAware Approximate
12:05PM 32.4122 -80.6344 180° South  Level Estimated
12:06PM 32.4122 -80.6344 180° South  Level Estimated
12:07PM 32.4122 -80.6344 176° South  Level Estimated
12:08PM 32.4122 -80.6344 176° South  Level Estimated
12:09PM 32.4122 -80.6344 180° South  Level Estimated
12:10PM 32.4122 -80.6344 176° South  Level Estimated
12:11PM 32.4122 -80.6344 176° South  Level Estimated
12:12PM 32.4122 -80.6344 180° South  Level Estimated
12:13PM 32.4122 -80.6344 176° South  Level Estimated
12:14PM 32.4122 -80.6344 176° South  Level Estimated
12:15PM 32.4122 -80.6344 180° South  Level Estimated
12:16PM 32.4122 -80.6344 176° South  Level Estimated
12:17PM 32.4122 -80.6344 176° South  Level Estimated
12:18PM 32.4122 -80.6344 180° South  Level Estimated
12:19PM 32.4122 -80.6344 176° South  Level Estimated
12:20PM 32.4122 -80.6344 176° South  Level Estimated
12:21PM 32.4122 -80.6344 180° South  Level Estimated
12:22PM 32.4122 -80.6344 176° South  Level Estimated